This is the latest recevied weather packets stored in our database for station/object WB0OCV. If no packets are shown the sender has not sent any weather packets the latest 10 day(s).
| Time | Temp. | Humidity | Pressure | Rain* | Wind** | Luminosity | Snow |
|---|---|---|---|---|---|---|---|
| 1778004513 | 18.33° C | 68% | 1014.8 hPa | 0 mm | - | 747 W/m² | - |
| 1778004210 | 18.33° C | 67% | 1014.7 hPa | 0 mm | - | 754 W/m² | - |
| 1778003906 | 18.33° C | 67% | 1014.7 hPa | 0 mm | - | 762 W/m² | - |
| 1778003603 | 17.78° C | 69% | 1014.6 hPa | 0 mm | - | 768 W/m² | - |
| 1778003299 | 17.78° C | 68% | 1015 hPa | 0 mm | - | 773 W/m² | - |
| 1778002997 | 18.33° C | 68% | 1014.9 hPa | 0 mm | - | 777 W/m² | - |
| 1778002693 | 18.33° C | 68% | 1014.9 hPa | 0 mm | - | 783 W/m² | - |
| 1778002389 | 18.89° C | 69% | 1014.7 hPa | 0 mm | - | 786 W/m² | - |
| 1778002086 | 18.33° C | 69% | 1014.9 hPa | 0 mm | - | 790 W/m² | - |
| 1778001784 | 18.33° C | 69% | 1015 hPa | 0 mm | - | 794 W/m² | - |
| 1778001478 | 18.89° C | 68% | 1014.8 hPa | 0 mm | - | 798 W/m² | - |
| 1778001175 | 17.78° C | 69% | 1014.8 hPa | 0 mm | - | 802 W/m² | - |
| 1778000872 | 18.89° C | 67% | 1015.1 hPa | 0 mm | - | 802 W/m² | - |
| 1778000569 | 18.33° C | 69% | 1015 hPa | 0 mm | - | 802 W/m² | - |
| 1777999960 | 17.78° C | 70% | 1015.3 hPa | 0 mm | - | 805 W/m² | - |
| 1777999656 | 18.33° C | 68% | 1015.4 hPa | 0 mm | - | 805 W/m² | - |
| 1777999353 | 17.78° C | 71% | 1015.2 hPa | 0 mm | - | 803 W/m² | - |
| 1777999051 | 17.78° C | 71% | 1015.1 hPa | 0 mm | - | 805 W/m² | - |
| 1777998750 | 18.33° C | 69% | 1015.2 hPa | 0 mm | - | 803 W/m² | - |
| 1777998447 | 18.89° C | 67% | 1015.4 hPa | 0 mm | - | 801 W/m² | - |
| 1777998144 | 18.33° C | 68% | 1015.4 hPa | 0 mm | - | 802 W/m² | - |
| 1777997840 | 18.33° C | 70% | 1015.3 hPa | 0 mm | - | 800 W/m² | - |
| 1777997538 | 18.89° C | 67% | 1015.1 hPa | 0 mm | - | 798 W/m² | - |
| 1777997235 | 18.89° C | 68% | 1015.3 hPa | 0 mm | - | 793 W/m² | - |
| 1777996933 | 18.33° C | 69% | 1015.4 hPa | 0 mm | - | 786 W/m² | - |
* Rain latest hour (hover to see other rain measurements)
** Current wind speed in m/s (hover to see current wind gust speed)